createdAt,value
2023-03-15T00:01:30.226Z,29.03
2023-03-15T00:03:58.994Z,38.47
2023-03-15T00:06:27.580Z,38.23
2023-03-15T00:08:56.594Z,33.70
2023-03-15T00:11:25.029Z,34.57
2023-03-15T00:13:53.770Z,35.17
2023-03-15T00:16:27.034Z,29.20
2023-03-15T00:18:56.063Z,25.03
2023-03-15T00:21:25.564Z,11.73
2023-03-15T00:23:54.288Z,12.03
2023-03-15T00:26:22.873Z,14.00
2023-03-15T00:28:52.016Z,25.67
2023-03-15T00:31:24.775Z,19.53
2023-03-15T00:33:54.809Z,20.47
2023-03-15T00:36:25.774Z,19.63
2023-03-15T00:38:57.863Z,13.97
2023-03-15T00:41:26.764Z,16.90
2023-03-15T00:43:55.839Z,25.03
2023-03-15T00:46:25.757Z,29.67
2023-03-15T00:48:54.563Z,30.67
2023-03-15T00:51:25.501Z,30.80
2023-03-15T00:53:55.099Z,27.53
2023-03-15T00:56:26.892Z,30.90
2023-03-15T00:58:55.632Z,17.53
2023-03-15T01:01:28.010Z,18.23
2023-03-15T01:03:57.413Z,28.00
2023-03-15T01:06:28.585Z,32.93
2023-03-15T01:08:57.768Z,37.57
2023-03-15T01:11:28.410Z,28.00
2023-03-15T01:14:00.110Z,10.60
2023-03-15T01:16:30.199Z,17.50
2023-03-15T01:18:59.121Z,12.53
2023-03-15T01:21:27.882Z,12.00
2023-03-15T01:23:56.690Z,11.20
2023-03-15T01:26:25.497Z,14.00
2023-03-15T01:28:55.156Z,20.60
2023-03-15T01:31:25.589Z,19.30
2023-03-15T01:33:55.992Z,12.67
2023-03-15T01:36:25.493Z,16.07
2023-03-15T01:38:55.027Z,7.17
2023-03-15T01:41:29.662Z,6.23
2023-03-15T01:43:58.590Z,5.77
2023-03-15T01:46:29.856Z,4.77
2023-03-15T01:49:12.490Z,4.70
2023-03-15T01:51:47.396Z,4.73
2023-03-15T01:54:20.506Z,5.37
2023-03-15T01:56:53.979Z,6.27
2023-03-15T01:59:27.210Z,6.10
2023-03-15T02:01:57.194Z,5.43
2023-03-15T02:04:33.736Z,5.33
2023-03-15T02:07:04.565Z,7.17
2023-03-15T02:09:43.579Z,5.90
2023-03-15T02:12:12.560Z,6.57
2023-03-15T02:14:41.958Z,4.90
2023-03-15T02:17:14.180Z,3.97
2023-03-15T02:19:54.185Z,7.67
2023-03-15T02:22:33.388Z,6.67
2023-03-15T02:25:12.108Z,17.03
2023-03-15T02:27:44.607Z,10.10
2023-03-15T02:30:13.810Z,15.23
2023-03-15T02:32:44.080Z,6.63
2023-03-15T02:35:13.146Z,5.23
2023-03-15T02:37:45.995Z,5.97
2023-03-15T02:40:20.380Z,9.87
2023-03-15T02:42:54.520Z,17.00
2023-03-15T02:45:25.225Z,8.70
2023-03-15T02:47:54.160Z,8.03
2023-03-15T02:50:23.281Z,6.97
2023-03-15T02:52:52.867Z,10.60
2023-03-15T02:55:22.100Z,5.50
2023-03-15T02:57:51.945Z,5.70
2023-03-15T03:00:22.443Z,6.20
2023-03-15T03:02:51.070Z,8.17
2023-03-15T03:05:19.985Z,7.20
2023-03-15T03:07:50.210Z,5.90
2023-03-15T03:10:21.127Z,4.90
2023-03-15T03:12:55.270Z,5.47
2023-03-15T03:15:45.596Z,5.07
2023-03-15T03:18:15.754Z,5.93
2023-03-15T03:20:46.177Z,4.80
2023-03-15T03:23:14.786Z,6.33
2023-03-15T03:25:45.699Z,6.27
2023-03-15T03:28:15.610Z,5.83
2023-03-15T03:30:44.687Z,4.17
2023-03-15T03:33:15.875Z,5.83
2023-03-15T03:35:44.799Z,5.93
2023-03-15T03:38:13.864Z,4.10
2023-03-15T03:40:47.393Z,5.70
2023-03-15T03:43:17.419Z,4.60
2023-03-15T03:45:46.566Z,5.53
2023-03-15T03:48:15.165Z,4.57
2023-03-15T03:50:44.469Z,4.60
2023-03-15T03:53:12.997Z,5.30
2023-03-15T03:55:42.745Z,5.23
2023-03-15T03:58:11.498Z,7.30
2023-03-15T04:00:49.924Z,5.73
2023-03-15T04:03:18.427Z,5.20
2023-03-15T04:05:52.925Z,5.47
2023-03-15T04:08:24.803Z,6.37
2023-03-15T04:10:54.392Z,5.63
2023-03-15T04:13:25.695Z,6.07
2023-03-15T04:15:57.672Z,6.47
2023-03-15T04:18:29.963Z,8.27
2023-03-15T04:20:58.897Z,8.00
2023-03-15T04:23:27.589Z,11.23
2023-03-15T04:26:14.744Z,6.73
2023-03-15T04:29:10.828Z,8.07
2023-03-15T04:32:01.585Z,6.70
2023-03-15T04:34:51.417Z,5.53
2023-03-15T04:37:42.477Z,6.07
2023-03-15T04:40:39.096Z,8.13
2023-03-15T04:43:40.500Z,4.63
2023-03-15T04:46:25.116Z,5.73
2023-03-15T04:49:14.050Z,5.53
2023-03-15T04:51:54.875Z,5.83
2023-03-15T04:54:46.714Z,5.73
2023-03-15T04:57:41.607Z,5.70
2023-03-15T05:00:36.847Z,4.67
2023-03-15T05:03:08.495Z,5.07
2023-03-15T05:06:07.968Z,4.60
2023-03-15T05:08:55.612Z,5.50
2023-03-15T05:11:50.928Z,4.00
2023-03-15T05:14:54.532Z,5.37
2023-03-15T05:17:55.106Z,6.20
2023-03-15T05:20:59.102Z,4.30
2023-03-15T05:23:57.501Z,4.60
2023-03-15T05:26:46.481Z,4.00
2023-03-15T05:29:34.410Z,5.77
2023-03-15T05:32:19.438Z,5.33
2023-03-15T05:35:16.430Z,4.80
2023-03-15T05:38:14.419Z,5.33
2023-03-15T05:41:18.019Z,4.93
2023-03-15T05:43:54.501Z,4.07
2023-03-15T05:46:23.545Z,5.83
2023-03-15T05:49:15.230Z,4.00
2023-03-15T05:52:13.545Z,4.67
2023-03-15T05:54:58.277Z,6.17
2023-03-15T05:57:51.440Z,4.80
2023-03-15T06:00:38.137Z,4.70
2023-03-15T06:03:17.109Z,6.10
2023-03-15T06:06:01.181Z,5.77
2023-03-15T06:08:37.471Z,5.83
2023-03-15T06:11:07.180Z,6.07
2023-03-15T06:13:37.527Z,5.87
2023-03-15T06:16:12.621Z,5.07
2023-03-15T06:18:45.379Z,8.10
2023-03-15T06:21:13.892Z,5.27
2023-03-15T06:23:43.070Z,7.57
2023-03-15T06:26:12.037Z,7.67
2023-03-15T06:28:42.774Z,7.93
2023-03-15T06:31:13.165Z,8.43
2023-03-15T06:33:51.197Z,8.57
2023-03-15T06:36:21.290Z,9.93
2023-03-15T06:38:50.077Z,11.83
2023-03-15T06:41:19.396Z,11.43
2023-03-15T06:43:49.985Z,10.80
2023-03-15T06:46:18.605Z,7.90
2023-03-15T06:48:47.433Z,8.03
2023-03-15T06:51:17.093Z,5.90
2023-03-15T06:53:45.821Z,8.00
2023-03-15T06:56:14.295Z,11.07
2023-03-15T06:58:43.124Z,7.87
2023-03-15T07:01:15.224Z,7.37
2023-03-15T07:03:44.400Z,7.63
2023-03-15T07:06:12.883Z,6.37
2023-03-15T07:08:41.662Z,5.20
2023-03-15T07:11:10.336Z,7.87
2023-03-15T07:13:39.071Z,6.97
2023-03-15T07:16:07.876Z,6.50
2023-03-15T07:18:38.080Z,13.63
2023-03-15T07:21:08.170Z,13.37
2023-03-15T07:23:36.949Z,12.10
2023-03-15T07:26:05.753Z,13.50
2023-03-15T07:28:34.794Z,15.80
2023-03-15T07:31:05.188Z,34.27
2023-03-15T07:33:35.870Z,23.97
2023-03-15T07:36:07.930Z,22.07
2023-03-15T07:38:37.466Z,10.80
2023-03-15T07:41:07.301Z,16.83
2023-03-15T07:43:39.848Z,23.77
2023-03-15T07:46:17.047Z,27.50
2023-03-15T07:48:48.213Z,30.23
2023-03-15T07:51:18.122Z,32.60
2023-03-15T07:53:46.888Z,43.80
2023-03-15T07:56:15.514Z,43.43
2023-03-15T07:58:44.290Z,36.47
2023-03-15T08:01:12.825Z,34.03
2023-03-15T08:03:41.711Z,38.77
2023-03-15T08:06:10.319Z,26.93
2023-03-15T08:08:40.582Z,27.40
2023-03-15T08:11:09.108Z,28.57
2023-03-15T08:13:38.260Z,21.97
2023-03-15T08:16:07.200Z,39.80
2023-03-15T08:18:35.992Z,43.67
2023-03-15T08:21:04.948Z,40.10
2023-03-15T08:23:33.676Z,30.80
2023-03-15T08:26:03.758Z,22.87
2023-03-15T08:28:32.510Z,15.37
2023-03-15T08:31:01.082Z,20.70
2023-03-15T08:33:30.514Z,17.83
2023-03-15T08:35:59.051Z,9.60
2023-03-15T08:38:27.942Z,11.37
2023-03-15T08:41:00.009Z,10.97
2023-03-15T08:43:30.480Z,23.33
2023-03-15T08:46:01.719Z,23.80
2023-03-15T08:48:31.565Z,28.27
2023-03-15T08:51:04.082Z,19.80
2023-03-15T08:53:33.224Z,16.90
2023-03-15T08:56:01.941Z,26.97
2023-03-15T08:58:32.058Z,11.93
2023-03-15T09:01:00.908Z,7.83
2023-03-15T09:03:30.056Z,19.07
2023-03-15T09:05:59.066Z,33.03
2023-03-15T09:08:28.326Z,32.70
2023-03-15T09:10:57.073Z,37.43
2023-03-15T09:13:27.246Z,24.93
2023-03-15T09:15:58.098Z,16.33
2023-03-15T09:18:27.006Z,15.60
2023-03-15T09:20:57.647Z,12.27
2023-03-15T09:23:26.730Z,13.53
2023-03-15T09:25:55.212Z,11.73
2023-03-15T09:28:25.507Z,11.50
2023-03-15T09:30:54.640Z,12.90
2023-03-15T09:33:24.933Z,11.43
2023-03-15T09:35:54.159Z,5.77
2023-03-15T09:38:24.144Z,5.20
2023-03-15T09:40:57.467Z,7.00
2023-03-15T09:43:53.033Z,6.80
2023-03-15T09:46:29.039Z,10.07
2023-03-15T09:49:06.177Z,7.07
2023-03-15T09:51:42.090Z,11.33
2023-03-15T09:54:15.815Z,9.47
2023-03-15T09:56:51.570Z,12.17
2023-03-15T09:59:22.852Z,25.57
2023-03-15T10:01:56.337Z,21.33
2023-03-15T10:04:31.961Z,6.90
2023-03-15T10:07:02.923Z,12.70
2023-03-15T10:09:34.471Z,15.00
2023-03-15T10:12:09.787Z,10.97
2023-03-15T10:15:01.528Z,6.17
2023-03-15T10:17:38.278Z,6.07
2023-03-15T10:20:14.505Z,20.83
2023-03-15T10:22:52.105Z,5.97
2023-03-15T10:25:26.121Z,5.57
2023-03-15T10:27:58.635Z,8.30
2023-03-15T10:30:29.444Z,12.60
2023-03-15T10:33:02.982Z,11.80
2023-03-15T10:35:33.549Z,15.27
2023-03-15T10:38:02.668Z,9.33
2023-03-15T10:40:43.842Z,8.07
2023-03-15T10:43:20.837Z,5.77
2023-03-15T10:46:00.645Z,11.37
2023-03-15T10:48:29.863Z,20.20
2023-03-15T10:51:05.205Z,11.73
2023-03-15T10:53:33.743Z,6.67
2023-03-15T10:56:06.685Z,5.23
2023-03-15T10:58:43.459Z,5.33
2023-03-15T11:01:23.609Z,5.57
2023-03-15T11:04:07.888Z,5.23
2023-03-15T11:06:43.703Z,5.67
2023-03-15T11:09:14.894Z,4.70
2023-03-15T11:11:55.795Z,6.80
2023-03-15T11:14:24.995Z,8.43
2023-03-15T11:16:57.188Z,24.47
2023-03-15T11:19:29.121Z,43.60
2023-03-15T11:22:01.014Z,48.63
2023-03-15T11:24:31.265Z,50.30
2023-03-15T11:27:02.783Z,39.57
2023-03-15T11:29:33.194Z,28.57
2023-03-15T11:32:04.967Z,18.63
2023-03-15T11:34:41.849Z,14.03
2023-03-15T11:37:20.294Z,20.50
2023-03-15T11:40:05.143Z,13.67
2023-03-15T11:42:48.520Z,5.67
2023-03-15T11:45:22.660Z,5.77
2023-03-15T11:47:55.643Z,7.47
2023-03-15T11:50:24.114Z,8.77
2023-03-15T11:52:54.635Z,12.20
2023-03-15T11:55:27.530Z,36.87
2023-03-15T11:57:58.002Z,34.00
2023-03-15T12:00:53.522Z,11.37
2023-03-15T12:03:41.271Z,13.63
2023-03-15T12:06:29.341Z,6.90
2023-03-15T12:08:59.479Z,7.87
2023-03-15T12:11:48.592Z,7.83
2023-03-15T12:14:31.013Z,5.67
2023-03-15T12:17:32.433Z,6.80
2023-03-15T12:20:03.292Z,11.77
2023-03-15T12:22:34.126Z,5.57
2023-03-15T12:25:14.633Z,5.37
2023-03-15T12:27:50.081Z,4.37
2023-03-15T12:30:23.656Z,5.77
2023-03-15T12:32:55.752Z,3.83
2023-03-15T12:35:29.232Z,3.90
2023-03-15T12:38:01.473Z,5.13
2023-03-15T12:40:59.784Z,5.63
2023-03-15T12:43:39.339Z,12.57
2023-03-15T12:46:08.761Z,7.33
2023-03-15T12:48:37.289Z,5.00
2023-03-15T12:51:36.324Z,4.23
2023-03-15T12:54:05.890Z,4.43
2023-03-15T12:56:44.339Z,4.20
2023-03-15T12:59:33.098Z,3.50
2023-03-15T13:02:09.872Z,3.57
2023-03-15T13:04:40.005Z,4.80
2023-03-15T13:07:24.627Z,4.27
2023-03-15T13:10:17.216Z,7.63
2023-03-15T13:12:55.399Z,12.60
2023-03-15T13:15:28.094Z,6.07
2023-03-15T13:17:59.398Z,4.50
2023-03-15T13:20:42.602Z,4.90
2023-03-15T13:23:17.710Z,4.67
2023-03-15T13:25:55.614Z,5.63
2023-03-15T13:28:37.308Z,4.87
2023-03-15T13:31:14.384Z,8.30
2023-03-15T13:33:43.374Z,4.60
2023-03-15T13:36:15.144Z,6.27
2023-03-15T13:38:45.516Z,7.07
2023-03-15T13:41:19.829Z,3.70
2023-03-15T13:43:51.561Z,4.73
2023-03-15T13:46:23.368Z,5.37
2023-03-15T13:48:56.162Z,5.40
2023-03-15T13:51:27.734Z,4.20
2023-03-15T13:54:02.110Z,5.73
2023-03-15T13:56:47.055Z,7.17
2023-03-15T13:59:20.264Z,27.90
2023-03-15T14:01:54.038Z,34.57
2023-03-15T14:04:24.673Z,36.27
2023-03-15T14:07:03.952Z,46.47
2023-03-15T14:09:32.723Z,48.47
2023-03-15T14:12:07.177Z,54.07
2023-03-15T14:14:47.477Z,51.77
2023-03-15T14:17:25.721Z,39.00
2023-03-15T14:19:56.731Z,17.20
2023-03-15T14:22:32.015Z,33.87
2023-03-15T14:25:01.263Z,8.90
2023-03-15T14:27:30.638Z,5.20
2023-03-15T14:30:02.924Z,5.77
2023-03-15T14:32:34.109Z,6.73
2023-03-15T14:35:05.549Z,5.53
2023-03-15T14:37:38.904Z,6.00
2023-03-15T14:40:16.414Z,4.93
2023-03-15T14:42:45.028Z,4.80
2023-03-15T14:45:15.989Z,5.07
2023-03-15T14:48:01.588Z,4.27
2023-03-15T14:50:35.814Z,5.97
2023-03-15T14:53:05.309Z,4.87
2023-03-15T14:55:36.854Z,4.40
2023-03-15T14:58:10.800Z,5.73
2023-03-15T15:00:41.548Z,4.90
2023-03-15T15:03:22.262Z,5.47
2023-03-15T15:05:51.613Z,5.63
2023-03-15T15:08:22.712Z,5.60
2023-03-15T15:10:54.497Z,7.23
2023-03-15T15:13:24.485Z,4.93
2023-03-15T15:15:56.704Z,6.63
2023-03-15T15:18:27.711Z,6.80
2023-03-15T15:20:57.696Z,4.63
2023-03-15T15:23:28.430Z,5.13
2023-03-15T15:25:59.898Z,5.77
2023-03-15T15:28:37.639Z,5.23
2023-03-15T15:31:08.404Z,4.80
2023-03-15T15:33:37.407Z,6.27
2023-03-15T15:36:12.225Z,6.30
2023-03-15T15:38:41.047Z,7.07
2023-03-15T15:41:15.814Z,5.60
2023-03-15T15:43:44.860Z,4.73
2023-03-15T15:46:15.661Z,7.63
2023-03-15T15:48:44.620Z,5.20
2023-03-15T15:51:22.098Z,4.73
2023-03-15T15:53:51.227Z,5.73
2023-03-15T15:56:20.317Z,5.33
2023-03-15T15:58:49.995Z,5.17
2023-03-15T16:01:20.354Z,5.63
2023-03-15T16:03:48.897Z,4.50
2023-03-15T16:06:20.332Z,6.27
2023-03-15T16:08:51.870Z,6.17
2023-03-15T16:11:22.185Z,5.63
2023-03-15T16:13:53.889Z,6.40
2023-03-15T16:16:24.439Z,7.03
2023-03-15T16:18:53.143Z,6.13
2023-03-15T16:21:28.663Z,7.27
2023-03-15T16:24:02.653Z,6.13
2023-03-15T16:26:31.723Z,6.40
2023-03-15T16:29:00.366Z,6.90
2023-03-15T16:31:34.630Z,6.47
2023-03-15T16:34:03.292Z,5.93
2023-03-15T16:36:34.591Z,5.80
2023-03-15T16:39:03.399Z,6.53
2023-03-15T16:41:32.170Z,6.80
2023-03-15T16:44:01.338Z,5.83
2023-03-15T16:46:31.603Z,5.97
2023-03-15T16:49:00.331Z,7.23
2023-03-15T16:51:29.363Z,7.23
2023-03-15T16:54:12.585Z,8.20
2023-03-15T16:56:45.545Z,6.90
2023-03-15T16:59:16.312Z,7.30
2023-03-15T17:01:47.464Z,7.27
2023-03-15T17:04:16.500Z,7.93
2023-03-15T17:06:47.175Z,6.40
2023-03-15T17:09:19.004Z,7.10
2023-03-15T17:11:50.041Z,6.60
2023-03-15T17:14:21.522Z,7.80
2023-03-15T17:16:52.285Z,8.10
2023-03-15T17:19:21.195Z,8.43
2023-03-15T17:21:50.413Z,8.70
2023-03-15T17:24:19.253Z,10.50
2023-03-15T17:26:48.475Z,7.80
2023-03-15T17:29:23.740Z,7.00
2023-03-15T17:31:54.244Z,7.83
2023-03-15T17:34:23.497Z,10.30
2023-03-15T17:36:53.515Z,9.40
2023-03-15T17:39:22.604Z,10.33
2023-03-15T17:41:51.350Z,9.00
2023-03-15T17:44:19.853Z,8.87
2023-03-15T17:46:48.943Z,7.03
2023-03-15T17:49:19.268Z,7.33
2023-03-15T17:51:49.108Z,7.50
2023-03-15T17:54:19.163Z,10.40
2023-03-15T17:56:48.407Z,8.93
2023-03-15T17:59:17.454Z,7.30
2023-03-15T18:01:48.848Z,7.20
2023-03-15T18:04:21.335Z,7.57
2023-03-15T18:06:50.542Z,8.33
2023-03-15T18:09:22.152Z,10.03
2023-03-15T18:11:53.365Z,10.20
2023-03-15T18:14:22.491Z,9.30
2023-03-15T18:16:52.224Z,9.37
2023-03-15T18:19:23.600Z,10.63
2023-03-15T18:21:52.994Z,10.53
2023-03-15T18:24:22.016Z,10.33
2023-03-15T18:26:52.771Z,12.23
2023-03-15T18:29:21.635Z,11.50
2023-03-15T18:31:51.341Z,12.27
2023-03-15T18:34:21.993Z,11.80
2023-03-15T18:36:52.897Z,10.97
2023-03-15T18:39:22.507Z,11.13
2023-03-15T18:41:51.321Z,11.90
2023-03-15T18:44:19.952Z,15.00
2023-03-15T18:46:48.736Z,12.17
2023-03-15T18:49:17.356Z,13.70
2023-03-15T18:51:46.103Z,11.43
2023-03-15T18:54:15.963Z,11.33
2023-03-15T18:56:44.684Z,12.40
2023-03-15T18:59:13.267Z,15.57
2023-03-15T19:01:43.133Z,14.23
2023-03-15T19:04:12.274Z,16.17
2023-03-15T19:06:41.110Z,14.00
2023-03-15T19:09:09.881Z,16.00
2023-03-15T19:11:41.811Z,15.07
2023-03-15T19:14:10.637Z,13.50
2023-03-15T19:16:39.656Z,16.13
2023-03-15T19:19:08.479Z,16.30
2023-03-15T19:21:38.784Z,15.37
2023-03-15T19:24:09.514Z,13.53
2023-03-15T19:26:39.980Z,16.10
2023-03-15T19:29:08.613Z,14.27
2023-03-15T19:31:38.739Z,15.17
2023-03-15T19:34:07.802Z,15.40
2023-03-15T19:36:36.622Z,14.30
2023-03-15T19:39:07.158Z,17.47
2023-03-15T19:41:35.947Z,15.87
2023-03-15T19:44:05.924Z,16.17
2023-03-15T19:46:34.844Z,15.27
2023-03-15T19:49:04.277Z,16.30
2023-03-15T19:51:33.164Z,17.57
2023-03-15T19:54:02.525Z,13.77
2023-03-15T19:56:31.311Z,16.10
2023-03-15T19:58:59.860Z,13.80
2023-03-15T20:01:30.275Z,14.57
2023-03-15T20:03:58.914Z,14.60
2023-03-15T20:06:27.865Z,13.37
2023-03-15T20:08:56.424Z,12.30
2023-03-15T20:11:26.025Z,12.90
2023-03-15T20:13:55.048Z,12.50
2023-03-15T20:16:24.298Z,13.63
2023-03-15T20:18:55.752Z,21.60
2023-03-15T20:21:24.961Z,15.93
2023-03-15T20:23:54.110Z,14.03
2023-03-15T20:26:23.879Z,17.00
2023-03-15T20:28:52.669Z,17.17
2023-03-15T20:31:21.866Z,17.47
2023-03-15T20:33:51.381Z,16.03
2023-03-15T20:36:21.828Z,15.37
2023-03-15T20:38:50.552Z,15.27
2023-03-15T20:41:19.336Z,15.20
2023-03-15T20:43:48.273Z,21.70
2023-03-15T20:46:19.289Z,18.83
2023-03-15T20:48:47.946Z,17.83
2023-03-15T20:51:16.738Z,17.23
2023-03-15T20:53:46.768Z,21.57
2023-03-15T20:56:16.554Z,21.43
2023-03-15T20:58:45.104Z,23.07
2023-03-15T21:01:16.734Z,26.80
2023-03-15T21:03:45.980Z,27.03
2023-03-15T21:06:15.197Z,29.23
2023-03-15T21:08:44.124Z,28.70
2023-03-15T21:11:14.379Z,29.20
2023-03-15T21:13:42.968Z,30.80
2023-03-15T21:16:13.445Z,30.47
2023-03-15T21:18:47.669Z,33.63
2023-03-15T21:21:16.688Z,36.63
2023-03-15T21:23:45.442Z,35.23
2023-03-15T21:26:15.724Z,32.70
2023-03-15T21:28:44.523Z,33.00
2023-03-15T21:31:13.476Z,32.40
2023-03-15T21:33:42.025Z,31.57
2023-03-15T21:36:12.190Z,30.17
2023-03-15T21:38:40.850Z,30.27
2023-03-15T21:41:11.236Z,30.20
2023-03-15T21:43:41.518Z,29.60
2023-03-15T21:46:13.037Z,27.07
2023-03-15T21:48:42.747Z,27.30
2023-03-15T21:51:14.697Z,26.27
2023-03-15T21:53:43.507Z,25.77
2023-03-15T21:56:13.840Z,28.20
2023-03-15T21:58:43.907Z,26.63
2023-03-15T22:01:14.857Z,27.13
2023-03-15T22:03:44.263Z,28.67
2023-03-15T22:06:13.601Z,30.00
2023-03-15T22:08:42.501Z,26.77
2023-03-15T22:11:11.407Z,30.60
2023-03-15T22:13:41.601Z,32.77
2023-03-15T22:16:12.697Z,25.40
2023-03-15T22:18:41.412Z,22.53
2023-03-15T22:21:10.109Z,21.30
2023-03-15T22:23:38.638Z,19.97
2023-03-15T22:26:07.607Z,18.50
2023-03-15T22:28:36.276Z,17.20
2023-03-15T22:31:05.180Z,18.73
2023-03-15T22:33:35.148Z,18.27
2023-03-15T22:36:04.394Z,18.07
2023-03-15T22:38:37.648Z,16.80
2023-03-15T22:41:08.414Z,14.43
2023-03-15T22:43:38.860Z,15.47
2023-03-15T22:46:08.145Z,12.77
2023-03-15T22:48:38.097Z,12.10
2023-03-15T22:51:09.630Z,12.77
2023-03-15T22:53:38.175Z,12.17
2023-03-15T22:56:07.297Z,11.17
2023-03-15T22:58:36.415Z,11.03
2023-03-15T23:01:05.479Z,10.17
2023-03-15T23:03:34.140Z,9.37
2023-03-15T23:06:04.690Z,9.40
2023-03-15T23:08:33.152Z,9.80
2023-03-15T23:11:01.869Z,9.03
2023-03-15T23:13:30.396Z,10.87
2023-03-15T23:15:59.211Z,11.00
2023-03-15T23:18:27.704Z,11.20
2023-03-15T23:21:06.744Z,11.50
2023-03-15T23:23:35.759Z,11.20
2023-03-15T23:26:04.476Z,12.07
2023-03-15T23:28:33.238Z,14.80
2023-03-15T23:31:03.054Z,16.50
2023-03-15T23:36:18.382Z,14.40
2023-03-15T23:38:46.844Z,13.83
2023-03-15T23:41:15.545Z,13.23
2023-03-15T23:43:44.085Z,14.43
2023-03-15T23:46:14.527Z,13.93
2023-03-15T23:48:43.196Z,13.33
2023-03-15T23:51:12.643Z,12.67
2023-03-15T23:53:42.767Z,12.07
2023-03-15T23:56:11.766Z,14.23
2023-03-15T23:58:40.700Z,12.20
